Time,TemperatureF,DewpointF,PressureIn,WindDirection,WindDirectionDegrees,WindSpeedMPH,WindSpeedGustMPH,Humidity,HourlyPrecipIn,Conditions,Clouds,dailyrainin,SoftwareType,DateUTC
2013-01-17 00:02:00,67.5,66.0,30.06,ESE,104,0.0,-999.0,93,-99.99,,,0.00,weatherlink.com 1.10,2013-01-17 05:02:00,
2013-01-17 00:17:00,67.7,65.0,30.05,ESE,104,0.0,-999.0,92,-99.99,,,0.00,weatherlink.com 1.10,2013-01-17 05:17:00,
2013-01-17 00:32:00,68.0,66.0,30.05,ESE,104,0.0,-999.0,92,-99.99,,,0.00,weatherlink.com 1.10,2013-01-17 05:32:00,
2013-01-17 00:47:00,68.5,66.0,30.05,ESE,104,0.0,-999.0,91,-99.99,,,0.00,weatherlink.com 1.10,2013-01-17 05:47:00,
2013-01-17 01:02:00,68.8,66.0,30.05,ESE,104,0.0,-999.0,90,-99.99,,,0.00,weatherlink.com 1.10,2013-01-17 06:02:00,
2013-01-17 01:17:00,69.1,66.0,30.05,ESE,104,2.0,-999.0,90,-99.99,,,0.00,weatherlink.com 1.10,2013-01-17 06:17:00,
2013-01-17 01:32:00,69.2,66.0,30.05,ESE,104,0.0,-999.0,89,-99.99,,,0.00,weatherlink.com 1.10,2013-01-17 06:32:00,
2013-01-17 01:47:00,69.1,66.0,30.05,ESE,104,0.0,-999.0,89,-99.99,,,0.00,weatherlink.com 1.10,2013-01-17 06:47:00,
2013-01-17 02:02:00,68.8,66.0,30.05,ESE,104,0.0,-999.0,89,-99.99,,,0.00,weatherlink.com 1.10,2013-01-17 07:02:00,
2013-01-17 02:17:00,68.4,66.0,30.05,ESE,104,0.0,-999.0,91,-99.99,,,0.00,weatherlink.com 1.10,2013-01-17 07:17:00,
2013-01-17 02:32:00,68.0,65.0,30.05,ESE,104,0.0,-999.0,91,-99.99,,,0.00,weatherlink.com 1.10,2013-01-17 07:32:00,
2013-01-17 02:47:00,67.7,65.0,30.05,ESE,104,0.0,-999.0,92,-99.99,,,0.00,weatherlink.com 1.10,2013-01-17 07:47:00,
2013-01-17 03:02:00,67.6,65.0,30.05,ESE,104,0.0,-999.0,92,-99.99,,,0.00,weatherlink.com 1.10,2013-01-17 08:02:00,
2013-01-17 03:17:00,67.7,66.0,30.05,ESE,104,0.0,-999.0,93,-99.99,,,0.00,weatherlink.com 1.10,2013-01-17 08:17:00,
2013-01-17 03:32:00,67.8,66.0,30.05,ESE,104,0.0,-999.0,93,-99.99,,,0.00,weatherlink.com 1.10,2013-01-17 08:32:00,
2013-01-17 03:47:00,67.7,66.0,30.05,ESE,104,0.0,-999.0,93,-99.99,,,0.00,weatherlink.com 1.10,2013-01-17 08:47:00,
2013-01-17 04:02:00,67.4,65.0,30.05,ESE,104,0.0,-999.0,93,-99.99,,,0.00,weatherlink.com 1.10,2013-01-17 09:02:00,
2013-01-17 04:17:00,67.0,65.0,30.05,ESE,104,0.0,-999.0,93,-99.99,,,0.00,weatherlink.com 1.10,2013-01-17 09:17:00,
2013-01-17 04:32:00,66.8,65.0,30.05,ESE,104,0.0,-999.0,94,-99.99,,,0.00,weatherlink.com 1.10,2013-01-17 09:32:00,
2013-01-17 04:47:00,66.6,65.0,30.05,ESE,104,0.0,-999.0,94,-99.99,,,0.00,weatherlink.com 1.10,2013-01-17 09:47:00,
2013-01-17 05:02:00,66.4,65.0,30.04,ESE,104,0.0,-999.0,94,-99.99,,,0.00,weatherlink.com 1.10,2013-01-17 10:02:00,
2013-01-17 05:17:00,66.1,64.0,30.05,ESE,104,0.0,-999.0,94,-99.99,,,0.00,weatherlink.com 1.10,2013-01-17 10:17:00,
2013-01-17 05:32:00,65.8,64.0,30.05,ESE,104,0.0,-999.0,94,-99.99,,,0.00,weatherlink.com 1.10,2013-01-17 10:32:00,
2013-01-17 05:47:00,65.6,64.0,30.05,ESE,104,0.0,-999.0,95,-99.99,,,0.00,weatherlink.com 1.10,2013-01-17 10:47:00,
2013-01-17 06:02:00,65.4,64.0,30.06,ESE,104,0.0,-999.0,95,-99.99,,,0.00,weatherlink.com 1.10,2013-01-17 11:02:00,
2013-01-17 06:17:00,65.2,64.0,30.06,ESE,104,0.0,-999.0,95,-99.99,,,0.00,weatherlink.com 1.10,2013-01-17 11:17:00,
2013-01-17 06:32:00,65.0,64.0,30.06,ESE,104,0.0,-999.0,95,-99.99,,,0.00,weatherlink.com 1.10,2013-01-17 11:32:00,
2013-01-17 06:47:00,64.9,64.0,30.06,ESE,104,0.0,-999.0,95,-99.99,,,0.00,weatherlink.com 1.10,2013-01-17 11:47:00,
2013-01-17 07:02:00,64.7,63.0,30.07,ESE,104,0.0,-999.0,95,-99.99,,,0.00,weatherlink.com 1.10,2013-01-17 12:02:00,
2013-01-17 07:17:00,64.6,63.0,30.07,ESE,104,0.0,-999.0,95,-99.99,,,0.00,weatherlink.com 1.10,2013-01-17 12:17:00,
2013-01-17 07:32:00,64.5,63.0,30.07,ESE,104,0.0,-999.0,95,-99.99,,,0.00,weatherlink.com 1.10,2013-01-17 12:32:00,
2013-01-17 07:48:00,64.6,64.0,30.08,ESE,104,0.0,-999.0,96,-99.99,,,0.00,weatherlink.com 1.10,2013-01-17 12:48:00,
2013-01-17 08:03:00,65.9,65.0,30.09,ESE,104,0.0,-999.0,97,-99.99,,,0.00,weatherlink.com 1.10,2013-01-17 13:03:00,
2013-01-17 08:18:00,67.4,67.0,30.09,ESE,104,0.0,-999.0,97,-99.99,,,0.00,weatherlink.com 1.10,2013-01-17 13:18:00,
2013-01-17 08:33:00,68.2,67.0,30.09,ESE,104,0.0,-999.0,97,-99.99,,,0.00,weatherlink.com 1.10,2013-01-17 13:33:00,
2013-01-17 08:48:00,68.8,68.0,30.09,ESE,104,0.0,-999.0,97,-99.99,,,0.00,weatherlink.com 1.10,2013-01-17 13:48:00,
2013-01-17 09:03:00,70.1,69.0,30.09,ESE,104,0.0,-999.0,97,-99.99,,,0.00,weatherlink.com 1.10,2013-01-17 14:03:00,
2013-01-17 09:18:00,71.8,71.0,30.09,SW,226,0.0,-999.0,97,-99.99,,,0.00,weatherlink.com 1.10,2013-01-17 14:18:00,
2013-01-17 09:33:00,74.2,73.0,30.10,SW,221,0.0,-999.0,95,-99.99,,,0.00,weatherlink.com 1.10,2013-01-17 14:33:00,
2013-01-17 09:48:00,75.9,72.0,30.10,South,169,0.0,-999.0,88,-99.99,,,0.00,weatherlink.com 1.10,2013-01-17 14:48:00,
2013-01-17 10:03:00,77.8,73.0,30.10,SSE,155,0.0,-999.0,86,-99.99,,,0.00,weatherlink.com 1.10,2013-01-17 15:03:00,
2013-01-17 10:18:00,78.7,73.0,30.10,South,181,0.0,-999.0,83,-99.99,,,0.00,weatherlink.com 1.10,2013-01-17 15:18:00,
2013-01-17 10:33:00,78.6,73.0,30.10,WSW,253,0.0,-999.0,82,-99.99,,,0.00,weatherlink.com 1.10,2013-01-17 15:33:00,
2013-01-17 10:48:00,79.4,72.0,30.10,WNW,284,0.0,-999.0,77,-99.99,,,0.00,weatherlink.com 1.10,2013-01-17 15:48:00,
2013-01-17 11:03:00,79.4,73.0,30.09,West,281,0.0,-999.0,80,-99.99,,,0.00,weatherlink.com 1.10,2013-01-17 16:03:00,
2013-01-17 11:18:00,79.1,72.0,30.09,WSW,256,0.0,-999.0,79,-99.99,,,0.00,weatherlink.com 1.10,2013-01-17 16:18:00,
2013-01-17 11:33:00,79.3,72.0,30.09,WNW,288,0.0,-999.0,79,-99.99,,,0.00,weatherlink.com 1.10,2013-01-17 16:33:00,
2013-01-17 11:48:00,80.2,72.0,30.08,West,281,7.0,-999.0,75,-99.99,,,0.00,weatherlink.com 1.10,2013-01-17 16:48:00,
2013-01-17 12:03:00,80.9,71.0,30.08,NW,311,6.0,-999.0,72,-99.99,,,0.00,weatherlink.com 1.10,2013-01-17 17:03:00,
2013-01-17 12:18:00,80.7,71.0,30.07,WNW,294,7.0,-999.0,72,-99.99,,,0.00,weatherlink.com 1.10,2013-01-17 17:18:00,
2013-01-17 12:33:00,80.3,70.0,30.06,WNW,294,4.0,-999.0,71,-99.99,,,0.00,weatherlink.com 1.10,2013-01-17 17:33:00,
2013-01-17 12:48:00,80.7,71.0,30.06,NW,307,7.0,-999.0,72,-99.99,,,0.00,weatherlink.com 1.10,2013-01-17 17:48:00,
2013-01-17 13:03:00,80.8,71.0,30.05,West,275,6.0,-999.0,72,-99.99,,,0.00,weatherlink.com 1.10,2013-01-17 18:03:00,
2013-01-17 13:18:00,80.6,71.0,30.04,West,273,0.0,-999.0,73,-99.99,,,0.00,weatherlink.com 1.10,2013-01-17 18:18:00,
2013-01-17 13:33:00,79.9,71.0,30.03,West,261,0.0,-999.0,75,-99.99,,,0.00,weatherlink.com 1.10,2013-01-17 18:33:00,
2013-01-17 13:48:00,78.6,71.0,30.03,West,281,5.0,-999.0,77,-99.99,,,0.00,weatherlink.com 1.10,2013-01-17 18:48:00,
2013-01-17 14:03:00,77.5,72.0,30.02,WNW,288,8.0,-999.0,82,-99.99,,,0.00,weatherlink.com 1.10,2013-01-17 19:03:00,
2013-01-17 14:18:00,77.4,72.0,30.02,NW,315,1.0,-999.0,82,-99.99,,,0.00,weatherlink.com 1.10,2013-01-17 19:18:00,
2013-01-17 14:33:00,74.9,69.0,30.03,NW,323,6.0,-999.0,83,-99.99,,,0.00,weatherlink.com 1.10,2013-01-17 19:33:00,
2013-01-17 14:48:00,72.6,69.0,30.03,WNW,284,18.0,-999.0,87,-99.99,,,0.00,weatherlink.com 1.10,2013-01-17 19:48:00,
2013-01-17 15:03:00,72.0,68.0,30.04,NW,312,13.0,-999.0,86,-99.99,,,0.00,weatherlink.com 1.10,2013-01-17 20:03:00,
2013-01-17 15:18:00,71.9,67.0,30.04,WNW,288,12.0,-999.0,84,-99.99,,,0.00,weatherlink.com 1.10,2013-01-17 20:18:00,
2013-01-17 15:33:00,71.4,66.0,30.05,NW,311,9.0,-999.0,84,-99.99,,,0.00,weatherlink.com 1.10,2013-01-17 20:33:00,
2013-01-17 15:48:00,70.5,66.0,30.05,NW,310,11.0,-999.0,84,-99.99,,,0.00,weatherlink.com 1.10,2013-01-17 20:48:00,
2013-01-17 16:03:00,69.9,65.0,30.06,NW,313,19.0,-999.0,85,-99.99,,,0.00,weatherlink.com 1.10,2013-01-17 21:03:00,
2013-01-17 16:18:00,69.2,65.0,30.06,NW,311,17.0,-999.0,85,-99.99,,,0.00,weatherlink.com 1.10,2013-01-17 21:18:00,
2013-01-17 16:33:00,68.3,64.0,30.07,NNW,334,4.0,-999.0,85,-99.99,,,0.00,weatherlink.com 1.10,2013-01-17 21:33:00,
2013-01-17 16:48:00,67.0,63.0,30.08,WNW,303,7.0,-999.0,86,-99.99,,,0.00,weatherlink.com 1.10,2013-01-17 21:48:00,
2013-01-17 17:03:00,65.6,62.0,30.09,WNW,293,9.0,-999.0,87,-99.99,,,0.00,weatherlink.com 1.10,2013-01-17 22:03:00,
2013-01-17 17:19:00,65.0,61.0,30.10,NW,309,11.0,-999.0,86,-99.99,,,0.00,weatherlink.com 1.10,2013-01-17 22:19:00,
2013-01-17 17:34:00,64.9,60.0,30.10,NNW,333,14.0,-999.0,85,-99.99,,,0.00,weatherlink.com 1.10,2013-01-17 22:34:00,
2013-01-17 17:49:00,65.0,60.0,30.10,NW,315,4.0,-999.0,84,-99.99,,,0.00,weatherlink.com 1.10,2013-01-17 22:49:00,
2013-01-17 18:04:00,64.9,60.0,30.11,NW,319,9.0,-999.0,83,-99.99,,,0.00,weatherlink.com 1.10,2013-01-17 23:04:00,
2013-01-17 18:19:00,64.8,59.0,30.11,WNW,297,0.0,-999.0,82,-99.99,,,0.00,weatherlink.com 1.10,2013-01-17 23:19:00,
2013-01-17 18:34:00,65.0,59.0,30.11,NW,318,12.0,-999.0,81,-99.99,,,0.00,weatherlink.com 1.10,2013-01-17 23:34:00,
2013-01-17 18:49:00,65.0,59.0,30.12,NNW,327,4.0,-999.0,80,-99.99,,,0.00,weatherlink.com 1.10,2013-01-17 23:49:00,
2013-01-17 19:04:00,64.9,58.0,30.13,WNW,298,18.0,-999.0,78,-99.99,,,0.00,weatherlink.com 1.10,2013-01-18 00:04:00,
2013-01-17 19:19:00,64.9,58.0,30.13,NNW,331,13.0,-999.0,79,-99.99,,,0.00,weatherlink.com 1.10,2013-01-18 00:19:00,
2013-01-17 19:34:00,64.9,58.0,30.14,NNW,333,2.0,-999.0,79,-99.99,,,0.00,weatherlink.com 1.10,2013-01-18 00:34:00,
2013-01-17 19:49:00,64.9,58.0,30.14,NNW,341,1.0,-999.0,79,-99.99,,,0.00,weatherlink.com 1.10,2013-01-18 00:49:00,
2013-01-17 20:04:00,64.9,59.0,30.14,NW,310,8.0,-999.0,80,-99.99,,,0.00,weatherlink.com 1.10,2013-01-18 01:04:00,
2013-01-17 20:19:00,64.7,58.0,30.14,North,355,0.0,-999.0,78,-99.99,,,0.00,weatherlink.com 1.10,2013-01-18 01:19:00,
2013-01-17 20:34:00,64.6,57.0,30.14,NW,319,4.0,-999.0,76,-99.99,,,0.00,weatherlink.com 1.10,2013-01-18 01:34:00,
2013-01-17 20:49:00,64.5,56.0,30.14,West,271,15.0,-999.0,75,-99.99,,,0.00,weatherlink.com 1.10,2013-01-18 01:49:00,
2013-01-17 21:04:00,64.3,55.0,30.14,NW,319,5.0,-999.0,72,-99.99,,,0.00,weatherlink.com 1.10,2013-01-18 02:04:00,
2013-01-17 21:19:00,64.0,55.0,30.14,WSW,258,8.0,-999.0,73,-99.99,,,0.00,weatherlink.com 1.10,2013-01-18 02:19:00,
2013-01-17 21:34:00,63.8,55.0,30.14,North,360,4.0,-999.0,73,-99.99,,,0.00,weatherlink.com 1.10,2013-01-18 02:34:00,
2013-01-17 21:49:00,63.5,55.0,30.14,WNW,296,12.0,-999.0,74,-99.99,,,0.00,weatherlink.com 1.10,2013-01-18 02:49:00,
2013-01-17 22:04:00,63.3,55.0,30.14,WNW,302,2.0,-999.0,75,-99.99,,,0.00,weatherlink.com 1.10,2013-01-18 03:04:00,
2013-01-17 22:19:00,63.2,56.0,30.14,WNW,293,6.0,-999.0,76,-99.99,,,0.00,weatherlink.com 1.10,2013-01-18 03:19:00,
2013-01-17 22:34:00,63.4,56.0,30.14,North,9,8.0,-999.0,77,-99.99,,,0.00,weatherlink.com 1.10,2013-01-18 03:34:00,
2013-01-17 22:49:00,63.3,56.0,30.14,NNW,338,7.0,-999.0,76,-99.99,,,0.00,weatherlink.com 1.10,2013-01-18 03:49:00,
2013-01-17 23:04:00,63.1,56.0,30.14,NW,306,14.0,-999.0,77,-99.99,,,0.00,weatherlink.com 1.10,2013-01-18 04:04:00,
2013-01-17 23:19:00,62.9,56.0,30.14,WNW,290,6.0,-999.0,77,-99.99,,,0.00,weatherlink.com 1.10,2013-01-18 04:19:00,
2013-01-17 23:34:00,62.3,54.0,30.15,NNW,332,1.0,-999.0,75,-99.99,,,0.00,weatherlink.com 1.10,2013-01-18 04:34:00,
2013-01-17 23:49:00,62.1,55.0,30.14,NNW,329,6.0,-999.0,77,-99.99,,,0.00,weatherlink.com 1.10,2013-01-18 04:49:00,